Time;durP1;ratioP1;P1;durP2;ratioP2;P2;SDS_P1;SDS_P2;PMS_P1;PMS_P2;Temp;Humidity;BMP_temperature;BMP_pressure;BME280_temperature;BME280_humidity;BME280_pressure;Samples;Min_cycle;Max_cycle;Signal;HPM_P1;HPM_P2
2022/11/27 00:01:39;;;;;;;19.08;1.88;;;;;;;;;;5003229;28;20044;-68
2022/11/27 00:04:05;;;;;;;9.07;2.08;;;;;;;;;;4999684;28;20423;-68
2022/11/27 00:06:30;;;;;;;7.95;2.03;;;;;;;;;;5002705;28;20479;-67
2022/11/27 00:08:56;;;;;;;13.65;2.83;;;;;;;;;;4995960;28;20097;-68
2022/11/27 00:11:22;;;;;;;6.40;1.40;;;;;;;;;;4999662;28;20036;-68
2022/11/27 00:13:48;;;;;;;3.58;1.30;;;;;;;;;;4996576;28;20038;-68
2022/11/27 00:16:14;;;;;;;4.30;2.40;;;;;;;;;;4995197;28;20368;-68
2022/11/27 00:18:39;;;;;;;4.38;1.23;;;;;;;;;;4997778;28;20037;-68
2022/11/27 00:21:25;;;;;;;14.65;2.10;;;;;;;;;;4999001;28;20359;-68
2022/11/27 00:23:51;;;;;;;7.95;3.30;;;;;;;;;;4992587;28;20053;-68
2022/11/27 00:26:16;;;;;;;7.88;1.90;;;;;;;;;;5001600;28;20056;-68
2022/11/27 00:28:42;;;;;;;4.95;2.30;;;;;;;;;;4995227;28;20030;-68
2022/11/27 00:31:11;;;;;;;3.97;1.88;;;;;;;;;;5000758;28;20032;-68
2022/11/27 00:33:36;;;;;;;8.65;1.77;;;;;;;;;;4999210;28;20116;-68
2022/11/27 00:36:02;;;;;;;6.55;2.03;;;;;;;;;;4999592;28;20161;-68
2022/11/27 00:38:27;;;;;;;8.13;1.98;;;;;;;;;;4999682;28;20060;-68
2022/11/27 00:40:52;;;;;;;12.25;2.00;;;;;;;;;;4997576;28;20097;-67
2022/11/27 00:43:18;;;;;;;12.57;2.58;;;;;;;;;;4994980;28;20022;-68
2022/11/27 00:45:47;;;;;;;9.80;2.85;;;;;;;;;;5004047;28;20022;-68
2022/11/27 00:48:12;;;;;;;3.40;1.25;;;;;;;;;;4996966;28;20176;-68
2022/11/27 00:50:37;;;;;;;5.60;2.10;;;;;;;;;;4998080;28;20703;-68
2022/11/27 00:53:02;;;;;;;9.70;2.03;;;;;;;;;;5006775;28;20277;-68
2022/11/27 00:55:28;;;;;;;8.80;1.70;;;;;;;;;;5002007;28;20922;-68
2022/11/27 00:57:53;;;;;;;2.40;1.23;;;;;;;;;;4998942;28;20019;-68
2022/11/27 01:00:18;;;;;;;7.50;3.05;;;;;;;;;;4998183;28;20076;-68
2022/11/27 01:02:43;;;;;;;7.00;1.65;;;;;;;;;;4997295;28;20019;-68
2022/11/27 01:05:09;;;;;;;20.38;2.10;;;;;;;;;;5002344;28;20025;-68
2022/11/27 01:07:34;;;;;;;10.07;2.25;;;;;;;;;;4998819;28;20060;-68
2022/11/27 01:09:59;;;;;;;8.93;2.15;;;;;;;;;;4995205;28;20025;-68
2022/11/27 01:12:24;;;;;;;3.67;1.23;;;;;;;;;;4999449;28;20637;-68
2022/11/27 01:14:50;;;;;;;12.97;2.00;;;;;;;;;;5000216;28;20323;-68
2022/11/27 01:17:15;;;;;;;14.02;2.67;;;;;;;;;;5006880;28;20307;-68
2022/11/27 01:19:40;;;;;;;22.47;2.90;;;;;;;;;;5005421;28;20021;-68
2022/11/27 01:22:05;;;;;;;6.43;2.30;;;;;;;;;;4997596;28;20960;-68
2022/11/27 01:24:30;;;;;;;8.85;1.95;;;;;;;;;;5007542;28;20264;-67
2022/11/27 01:26:55;;;;;;;7.43;1.90;;;;;;;;;;4995378;28;20196;-68
2022/11/27 01:29:21;;;;;;;6.60;2.42;;;;;;;;;;4992853;28;20295;-68
2022/11/27 01:31:46;;;;;;;6.03;2.17;;;;;;;;;;4996382;28;20026;-68
2022/11/27 01:34:15;;;;;;;8.57;1.75;;;;;;;;;;4996445;28;20769;-68
2022/11/27 01:36:40;;;;;;;10.52;1.50;;;;;;;;;;4992140;28;20434;-68
2022/11/27 01:39:06;;;;;;;7.65;3.10;;;;;;;;;;4996286;28;20121;-68
2022/11/27 01:41:35;;;;;;;4.55;1.73;;;;;;;;;;5000466;28;20041;-68
2022/11/27 01:44:02;;;;;;;8.63;3.17;;;;;;;;;;4995066;28;20022;-68
2022/11/27 01:46:44;;;;;;;8.57;2.22;;;;;;;;;;5000788;28;20049;-68
2022/11/27 01:49:09;;;;;;;6.43;2.17;;;;;;;;;;5001715;28;20026;-68
2022/11/27 01:51:45;;;;;;;10.07;2.38;;;;;;;;;;5001485;28;20036;-68
2022/11/27 01:54:11;;;;;;;8.35;1.88;;;;;;;;;;5000967;28;20281;-68
2022/11/27 01:56:37;;;;;;;5.95;2.25;;;;;;;;;;4999289;28;20438;-68
2022/11/27 01:59:02;;;;;;;13.25;2.58;;;;;;;;;;5000870;28;20104;-68
2022/11/27 02:01:28;;;;;;;9.52;1.80;;;;;;;;;;4998434;28;20101;-68
2022/11/27 02:03:56;;;;;;;9.38;2.78;;;;;;;;;;5000769;28;20014;-68
2022/11/27 02:06:21;;;;;;;6.28;3.03;;;;;;;;;;4998197;28;20049;-68
2022/11/27 02:08:46;;;;;;;9.30;3.03;;;;;;;;;;5000556;28;20058;-68
2022/11/27 02:11:14;;;;;;;6.32;2.40;;;;;;;;;;4995735;28;20634;-68
2022/11/27 02:13:53;;;;;;;10.77;3.65;;;;;;;;;;4993585;28;20022;-68
2022/11/27 02:16:23;;;;;;;9.10;3.15;;;;;;;;;;4999932;28;20056;-68
2022/11/27 02:19:02;;;;;;;15.52;4.15;;;;;;;;;;5001093;28;20030;-68
2022/11/27 02:21:36;;;;;;;10.18;3.15;;;;;;;;;;4997815;28;20022;-68
2022/11/27 02:24:04;;;;;;;12.90;5.03;;;;;;;;;;4995221;28;20077;-69
2022/11/27 02:26:48;;;;;;;15.43;4.97;;;;;;;;;;4999426;28;20026;-68
2022/11/27 02:29:14;;;;;;;12.38;3.53;;;;;;;;;;5000893;28;20022;-68
2022/11/27 02:31:50;;;;;;;10.77;3.47;;;;;;;;;;5002133;28;20095;-68
2022/11/27 02:34:24;;;;;;;12.38;3.30;;;;;;;;;;4999473;28;20379;-68
2022/11/27 02:36:53;;;;;;;19.02;5.20;;;;;;;;;;5004675;28;20029;-67
2022/11/27 02:39:21;;;;;;;5.43;2.22;;;;;;;;;;5002761;28;20084;-68
2022/11/27 02:41:49;;;;;;;20.92;6.00;;;;;;;;;;4997163;28;20026;-68
2022/11/27 02:44:15;;;;;;;16.73;5.10;;;;;;;;;;5007092;28;20029;-68
2022/11/27 02:46:40;;;;;;;12.85;6.45;;;;;;;;;;5006051;28;20026;-68
2022/11/27 02:49:08;;;;;;;10.02;3.13;;;;;;;;;;5004341;28;20111;-68
2022/11/27 02:51:39;;;;;;;7.65;2.78;;;;;;;;;;5005993;28;20111;-68
2022/11/27 02:54:06;;;;;;;14.82;4.75;;;;;;;;;;5003475;28;20109;-68
2022/11/27 02:56:32;;;;;;;25.05;6.43;;;;;;;;;;4996113;28;20033;-68
2022/11/27 02:58:59;;;;;;;15.60;5.93;;;;;;;;;;4998209;28;20026;-67
2022/11/27 03:01:28;;;;;;;17.23;8.23;;;;;;;;;;5000811;28;20475;-68
2022/11/27 03:03:55;;;;;;;12.10;4.70;;;;;;;;;;4996223;28;20066;-67
2022/11/27 03:06:27;;;;;;;15.98;7.57;;;;;;;;;;5008352;28;20037;-68
2022/11/27 03:08:54;;;;;;;17.50;7.75;;;;;;;;;;4996341;28;20497;-68
2022/11/27 03:11:20;;;;;;;25.50;6.82;;;;;;;;;;4998926;28;20030;-68
2022/11/27 03:13:57;;;;;;;12.55;4.97;;;;;;;;;;4999692;28;20105;-68
2022/11/27 03:16:41;;;;;;;27.55;8.60;;;;;;;;;;5000118;28;20022;-68
2022/11/27 03:19:24;;;;;;;32.28;9.70;;;;;;;;;;5001473;28;20105;-68
2022/11/27 03:21:51;;;;;;;20.42;6.25;;;;;;;;;;4998518;28;20129;-68
2022/11/27 03:24:17;;;;;;;21.98;8.52;;;;;;;;;;5004623;28;20028;-68
2022/11/27 03:26:42;;;;;;;11.85;4.75;;;;;;;;;;5002797;28;20093;-68
2022/11/27 03:29:16;;;;;;;21.52;7.35;;;;;;;;;;5000962;28;20403;-68
2022/11/27 03:31:41;;;;;;;22.30;8.07;;;;;;;;;;4998688;28;20054;-68
2022/11/27 03:34:07;;;;;;;18.70;6.60;;;;;;;;;;5002172;28;20046;-68
2022/11/27 03:36:32;;;;;;;17.52;7.18;;;;;;;;;;4999466;28;20430;-68
2022/11/27 03:38:57;;;;;;;23.75;7.78;;;;;;;;;;5000196;28;20057;-67
2022/11/27 03:41:41;;;;;;;14.13;5.22;;;;;;;;;;5003010;28;20072;-68
2022/11/27 03:44:22;;;;;;;13.85;4.50;;;;;;;;;;5005281;28;20006;-68
2022/11/27 03:46:50;;;;;;;15.35;7.07;;;;;;;;;;5004174;28;20474;-68
2022/11/27 03:49:27;;;;;;;19.02;9.35;;;;;;;;;;5003096;28;20022;-67
2022/11/27 03:52:00;;;;;;;20.45;9.02;;;;;;;;;;4996179;28;20022;-67
2022/11/27 03:54:36;;;;;;;17.77;6.22;;;;;;;;;;5002618;28;20239;-67
2022/11/27 03:57:12;;;;;;;19.70;8.07;;;;;;;;;;5002436;28;20017;-67
2022/11/27 03:59:41;;;;;;;10.52;4.70;;;;;;;;;;4998087;28;20056;-68
2022/11/27 04:02:10;;;;;;;14.25;5.45;;;;;;;;;;5003113;28;20046;-68
2022/11/27 04:04:35;;;;;;;20.65;8.07;;;;;;;;;;4998943;28;20042;-68
2022/11/27 04:07:00;;;;;;;14.93;4.60;;;;;;;;;;5001910;28;20056;-68
2022/11/27 04:09:25;;;;;;;12.10;5.73;;;;;;;;;;5001923;28;20276;-68
2022/11/27 04:11:50;;;;;;;20.00;4.07;;;;;;;;;;4998383;28;20312;-68
2022/11/27 04:14:16;;;;;;;23.37;8.17;;;;;;;;;;4997693;28;20028;-68
2022/11/27 04:16:41;;;;;;;17.20;6.27;;;;;;;;;;4996557;28;20893;-68
2022/11/27 04:19:07;;;;;;;20.93;7.83;;;;;;;;;;5001669;28;20277;-68
2022/11/27 04:21:32;;;;;;;24.50;6.35;;;;;;;;;;4998780;28;20745;-68
2022/11/27 04:23:57;;;;;;;17.02;7.65;;;;;;;;;;4995821;28;20076;-68
2022/11/27 04:26:23;;;;;;;13.20;5.13;;;;;;;;;;4994462;28;20480;-67
2022/11/27 04:28:48;;;;;;;7.15;4.15;;;;;;;;;;4996321;28;20022;-69
2022/11/27 04:31:13;;;;;;;16.08;6.97;;;;;;;;;;5004941;28;20761;-68
2022/11/27 04:33:38;;;;;;;17.63;5.07;;;;;;;;;;5001304;28;20029;-68
2022/11/27 04:36:04;;;;;;;22.17;7.70;;;;;;;;;;5003649;28;20665;-68
2022/11/27 04:38:29;;;;;;;22.88;9.05;;;;;;;;;;5002084;28;20025;-68
2022/11/27 04:40:54;;;;;;;18.15;7.63;;;;;;;;;;4999973;28;20089;-68
2022/11/27 04:43:19;;;;;;;9.38;3.92;;;;;;;;;;5003135;28;20590;-68
2022/11/27 04:45:45;;;;;;;14.98;5.95;;;;;;;;;;5003429;28;20033;-68
2022/11/27 04:48:10;;;;;;;15.90;4.33;;;;;;;;;;5003804;28;20029;-68
2022/11/27 04:50:35;;;;;;;17.48;5.88;;;;;;;;;;5004578;28;20661;-68
2022/11/27 04:53:00;;;;;;;14.25;6.40;;;;;;;;;;5004337;28;20026;-68
2022/11/27 04:55:25;;;;;;;14.23;4.33;;;;;;;;;;5003154;28;20120;-68
2022/11/27 04:57:51;;;;;;;20.15;4.53;;;;;;;;;;5000060;28;20697;-68
2022/11/27 05:00:16;;;;;;;18.65;6.03;;;;;;;;;;4999614;28;20038;-68
2022/11/27 05:02:41;;;;;;;17.02;3.85;;;;;;;;;;5000807;28;20101;-68
2022/11/27 05:05:07;;;;;;;20.57;6.40;;;;;;;;;;5002433;28;20056;-68
2022/11/27 05:07:32;;;;;;;14.02;3.80;;;;;;;;;;4999645;28;20281;-68
2022/11/27 05:09:57;;;;;;;16.60;5.55;;;;;;;;;;5001528;28;20022;-68
2022/11/27 05:12:22;;;;;;;14.40;5.97;;;;;;;;;;4995904;28;20022;-68
2022/11/27 05:14:47;;;;;;;13.98;4.63;;;;;;;;;;4999811;28;20498;-68
2022/11/27 05:17:12;;;;;;;12.55;4.50;;;;;;;;;;4992448;28;20047;-68
2022/11/27 05:19:38;;;;;;;12.67;3.73;;;;;;;;;;4993814;28;20101;-68
2022/11/27 05:22:03;;;;;;;12.63;6.10;;;;;;;;;;5000439;28;20269;-68
2022/11/27 05:24:28;;;;;;;12.20;5.53;;;;;;;;;;5007911;28;20275;-68
2022/11/27 05:26:54;;;;;;;9.98;4.40;;;;;;;;;;5002530;28;20574;-68
2022/11/27 05:29:20;;;;;;;6.28;3.55;;;;;;;;;;5002813;28;20181;-68
2022/11/27 05:31:45;;;;;;;12.95;4.38;;;;;;;;;;5007154;28;20403;-68
2022/11/27 05:34:11;;;;;;;16.25;5.20;;;;;;;;;;5003888;28;20032;-68
2022/11/27 05:36:36;;;;;;;20.48;6.20;;;;;;;;;;5010666;28;20026;-68
2022/11/27 05:39:02;;;;;;;20.15;3.83;;;;;;;;;;5007484;28;20014;-68
2022/11/27 05:41:27;;;;;;;11.40;4.95;;;;;;;;;;5009572;28;20434;-68
2022/11/27 05:43:52;;;;;;;15.65;4.38;;;;;;;;;;5008331;28;20020;-69
2022/11/27 05:46:21;;;;;;;11.00;5.05;;;;;;;;;;5005969;28;20093;-68
2022/11/27 05:48:46;;;;;;;6.93;3.53;;;;;;;;;;5006645;28;20022;-68
2022/11/27 05:51:11;;;;;;;6.85;2.50;;;;;;;;;;5002391;28;20033;-69
2022/11/27 05:53:36;;;;;;;15.35;5.55;;;;;;;;;;5009151;28;20631;-69
2022/11/27 05:56:03;;;;;;;8.30;4.23;;;;;;;;;;5000310;28;20024;-69
2022/11/27 05:58:28;;;;;;;9.18;3.53;;;;;;;;;;5003299;28;20304;-69
2022/11/27 06:00:53;;;;;;;9.55;3.80;;;;;;;;;;5002011;28;20013;-68
2022/11/27 06:03:18;;;;;;;9.60;4.23;;;;;;;;;;5006758;28;20022;-68
2022/11/27 06:05:43;;;;;;;23.13;8.20;;;;;;;;;;5004569;28;20853;-68
2022/11/27 06:08:08;;;;;;;15.60;5.85;;;;;;;;;;4999668;28;20278;-69
2022/11/27 06:10:34;;;;;;;12.70;6.27;;;;;;;;;;4998718;28;20053;-69
2022/11/27 06:12:59;;;;;;;12.43;4.88;;;;;;;;;;5004398;28;20331;-68
2022/11/27 06:15:24;;;;;;;16.17;5.53;;;;;;;;;;5000607;28;20403;-69
2022/11/27 06:17:49;;;;;;;24.50;4.75;;;;;;;;;;5006914;28;20303;-68
2022/11/27 06:20:15;;;;;;;11.10;4.15;;;;;;;;;;5000179;28;20503;-68
2022/11/27 06:22:40;;;;;;;12.68;5.15;;;;;;;;;;4996052;28;20459;-69
2022/11/27 06:25:05;;;;;;;12.93;3.90;;;;;;;;;;5001059;28;20557;-68
2022/11/27 06:27:32;;;;;;;18.25;5.40;;;;;;;;;;5000533;28;20718;-68
2022/11/27 06:29:57;;;;;;;6.40;3.90;;;;;;;;;;5005006;28;20049;-69
2022/11/27 06:32:22;;;;;;;14.83;4.50;;;;;;;;;;4994650;28;20057;-69
2022/11/27 06:34:47;;;;;;;14.40;5.00;;;;;;;;;;5010327;28;20284;-68
2022/11/27 06:37:13;;;;;;;17.33;4.97;;;;;;;;;;5003245;28;20284;-68
2022/11/27 06:39:38;;;;;;;27.80;6.28;;;;;;;;;;5005223;28;20293;-73
2022/11/27 06:42:03;;;;;;;8.77;4.23;;;;;;;;;;5001089;28;20025;-68
2022/11/27 06:44:28;;;;;;;11.38;4.82;;;;;;;;;;5003120;28;20758;-69
2022/11/27 06:46:53;;;;;;;7.33;3.57;;;;;;;;;;5001187;28;20077;-69
2022/11/27 06:49:19;;;;;;;20.70;5.43;;;;;;;;;;5004257;28;20364;-69
2022/11/27 06:51:45;;;;;;;10.68;5.63;;;;;;;;;;5003581;28;20281;-69
2022/11/27 06:54:10;;;;;;;17.02;5.50;;;;;;;;;;5001325;28;20036;-70
2022/11/27 06:56:35;;;;;;;11.02;4.80;;;;;;;;;;4999823;28;20029;-68
2022/11/27 06:59:00;;;;;;;6.85;3.08;;;;;;;;;;5000999;28;20026;-69
2022/11/27 07:01:27;;;;;;;6.32;3.00;;;;;;;;;;5002931;28;20057;-67
2022/11/27 07:03:52;;;;;;;8.63;4.88;;;;;;;;;;5001028;28;20014;-67
2022/11/27 07:06:19;;;;;;;13.27;4.28;;;;;;;;;;5004036;28;20068;-69
2022/11/27 07:08:44;;;;;;;12.73;3.78;;;;;;;;;;5001659;28;20028;-68
2022/11/27 07:11:11;;;;;;;10.52;4.28;;;;;;;;;;5001447;28;20101;-69
2022/11/27 07:13:36;;;;;;;9.50;4.45;;;;;;;;;;5001610;28;20038;-72
2022/11/27 07:16:03;;;;;;;14.18;5.25;;;;;;;;;;5007966;28;20021;-70
2022/11/27 07:18:29;;;;;;;19.15;6.57;;;;;;;;;;5004501;28;20021;-71
2022/11/27 07:20:54;;;;;;;12.35;5.88;;;;;;;;;;5002068;28;20018;-68
2022/11/27 07:23:19;;;;;;;18.08;6.97;;;;;;;;;;4997529;28;20038;-68
2022/11/27 07:25:45;;;;;;;12.73;5.53;;;;;;;;;;5000808;28;20064;-69
2022/11/27 07:28:10;;;;;;;25.87;5.83;;;;;;;;;;4999177;28;20719;-68
2022/11/27 07:30:35;;;;;;;11.25;3.63;;;;;;;;;;4999183;28;20285;-68
2022/11/27 07:33:00;;;;;;;11.50;3.87;;;;;;;;;;4999122;28;20038;-67
2022/11/27 07:35:26;;;;;;;10.53;3.70;;;;;;;;;;5000850;28;20315;-68
2022/11/27 07:37:51;;;;;;;20.10;5.93;;;;;;;;;;5007276;28;20284;-68
2022/11/27 07:40:17;;;;;;;19.70;6.25;;;;;;;;;;5000569;28;20288;-69
2022/11/27 07:42:42;;;;;;;15.10;3.65;;;;;;;;;;5002664;28;20052;-68
2022/11/27 07:45:07;;;;;;;8.57;3.67;;;;;;;;;;4996843;28;20026;-69
2022/11/27 07:47:33;;;;;;;12.02;5.63;;;;;;;;;;4998147;28;20403;-68
2022/11/27 07:49:59;;;;;;;16.80;5.67;;;;;;;;;;5003878;28;20097;-68
2022/11/27 07:52:24;;;;;;;14.07;3.85;;;;;;;;;;5007461;28;20761;-68
2022/11/27 07:54:49;;;;;;;14.63;7.03;;;;;;;;;;5009682;28;20045;-69
2022/11/27 07:57:14;;;;;;;10.73;3.43;;;;;;;;;;5003990;28;20024;-69
2022/11/27 07:59:40;;;;;;;5.90;1.95;;;;;;;;;;5001422;28;20331;-68
2022/11/27 08:02:05;;;;;;;11.90;6.20;;;;;;;;;;5007748;28;20479;-69
2022/11/27 08:04:30;;;;;;;6.80;4.30;;;;;;;;;;5000400;28;20280;-69
2022/11/27 08:06:56;;;;;;;10.23;4.30;;;;;;;;;;4997461;28;20770;-68
2022/11/27 08:09:21;;;;;;;17.40;4.90;;;;;;;;;;5005051;28;20328;-69
2022/11/27 08:11:46;;;;;;;9.67;3.80;;;;;;;;;;5002530;28;20022;-69
2022/11/27 08:14:12;;;;;;;9.90;5.23;;;;;;;;;;5004534;28;20339;-69
2022/11/27 08:16:37;;;;;;;21.77;4.43;;;;;;;;;;5005804;28;20320;-68
2022/11/27 08:19:02;;;;;;;6.75;2.33;;;;;;;;;;5007834;28;20022;-69
2022/11/27 08:21:28;;;;;;;8.43;3.28;;;;;;;;;;5004100;28;20025;-66
2022/11/27 08:23:53;;;;;;;14.70;4.43;;;;;;;;;;5006869;28;20029;-71
2022/11/27 08:26:19;;;;;;;7.20;2.83;;;;;;;;;;5006583;28;20033;-71
2022/11/27 08:28:45;;;;;;;11.13;3.22;;;;;;;;;;5000838;28;20033;-72
2022/11/27 08:31:11;;;;;;;11.93;3.28;;;;;;;;;;4996244;28;20022;-70
2022/11/27 08:33:36;;;;;;;10.43;2.88;;;;;;;;;;4999062;28;20409;-68
2022/11/27 08:36:01;;;;;;;13.00;4.15;;;;;;;;;;5004261;28;20075;-68
2022/11/27 08:38:27;;;;;;;16.48;3.65;;;;;;;;;;4998433;28;20072;-68
2022/11/27 08:40:53;;;;;;;17.27;5.32;;;;;;;;;;4998964;28;20105;-69
2022/11/27 08:43:18;;;;;;;9.55;3.63;;;;;;;;;;4997913;28;20057;-69
2022/11/27 08:45:43;;;;;;;6.87;2.60;;;;;;;;;;4998558;28;20046;-69
2022/11/27 08:48:08;;;;;;;19.57;4.50;;;;;;;;;;4998694;28;20780;-69
2022/11/27 08:50:35;;;;;;;12.33;4.00;;;;;;;;;;5001941;28;20281;-68
2022/11/27 08:53:00;;;;;;;11.52;2.92;;;;;;;;;;4996032;28;20277;-69
2022/11/27 08:55:26;;;;;;;11.63;3.63;;;;;;;;;;4998185;28;20116;-72
2022/11/27 08:57:51;;;;;;;8.30;3.20;;;;;;;;;;4996068;28;20030;-68
2022/11/27 09:00:16;;;;;;;7.50;3.28;;;;;;;;;;4999441;28;20657;-68
2022/11/27 09:02:41;;;;;;;11.85;3.47;;;;;;;;;;5002612;28;20513;-68
2022/11/27 09:05:07;;;;;;;11.45;3.78;;;;;;;;;;5000113;28;20018;-67
2022/11/27 09:07:32;;;;;;;7.35;3.45;;;;;;;;;;5000261;28;20121;-69
2022/11/27 09:09:57;;;;;;;7.18;2.42;;;;;;;;;;5004078;28;20378;-69
2022/11/27 09:12:22;;;;;;;13.73;5.67;;;;;;;;;;4999009;28;20113;-69
2022/11/27 09:14:48;;;;;;;8.10;3.05;;;;;;;;;;5003718;28;20761;-69
2022/11/27 09:17:13;;;;;;;10.90;4.03;;;;;;;;;;5001996;28;20026;-68
2022/11/27 09:19:38;;;;;;;11.55;4.50;;;;;;;;;;5006041;28;20280;-69
2022/11/27 09:22:03;;;;;;;9.23;4.03;;;;;;;;;;5005803;28;20021;-69
2022/11/27 09:24:29;;;;;;;11.98;4.63;;;;;;;;;;4995631;28;20065;-70
2022/11/27 09:26:54;;;;;;;13.27;5.35;;;;;;;;;;5000727;28;20029;-67
2022/11/27 09:29:19;;;;;;;8.70;5.20;;;;;;;;;;5000473;28;20042;-69
2022/11/27 09:31:44;;;;;;;8.68;2.85;;;;;;;;;;5004203;28;20484;-69
2022/11/27 09:34:10;;;;;;;6.97;3.72;;;;;;;;;;5001326;28;20026;-70
2022/11/27 09:36:35;;;;;;;8.88;4.35;;;;;;;;;;5002111;28;20545;-69
2022/11/27 09:39:02;;;;;;;6.30;3.47;;;;;;;;;;5007170;28;20084;-67
2022/11/27 09:41:37;;;;;;;8.90;3.60;;;;;;;;;;5000389;28;20505;-69
2022/11/27 09:44:05;;;;;;;15.68;4.30;;;;;;;;;;5003841;28;20501;-69
2022/11/27 09:46:35;;;;;;;21.40;4.72;;;;;;;;;;4999387;28;20022;-68
2022/11/27 09:49:02;;;;;;;10.23;3.58;;;;;;;;;;4999569;28;20425;-68
2022/11/27 09:51:32;;;;;;;17.70;6.10;;;;;;;;;;4999931;28;20044;-68
2022/11/27 09:54:16;;;;;;;17.50;6.13;;;;;;;;;;5004615;28;20029;-68
2022/11/27 09:56:42;;;;;;;11.27;4.63;;;;;;;;;;5000268;28;20033;-68
2022/11/27 09:59:13;;;;;;;11.20;3.85;;;;;;;;;;5002687;28;20705;-69
2022/11/27 10:01:38;;;;;;;10.73;3.60;;;;;;;;;;5001342;28;20175;-69
2022/11/27 10:04:03;;;;;;;19.10;3.35;;;;;;;;;;5002162;28;20022;-69
2022/11/27 10:07:01;;;;;;;13.30;4.50;;;;;;;;;;5005182;28;20014;-69
2022/11/27 10:09:26;;;;;;;14.30;4.28;;;;;;;;;;4964274;28;20034;-68
2022/11/27 10:11:54;;;;;;;12.07;4.85;;;;;;;;;;5005090;28;20021;-68
2022/11/27 10:14:46;;;;;;;7.18;2.60;;;;;;;;;;5002434;28;20022;-68
2022/11/27 10:17:11;;;;;;;8.23;2.80;;;;;;;;;;4966963;28;20029;-68
2022/11/27 10:19:42;;;;;;;8.38;2.80;;;;;;;;;;4997980;28;20052;-67
2022/11/27 10:22:10;;;;;;;17.02;5.03;;;;;;;;;;5002826;28;20480;-71
2022/11/27 10:24:41;;;;;;;6.75;2.78;;;;;;;;;;5005492;28;20048;-68
2022/11/27 10:27:17;;;;;;;11.27;3.55;;;;;;;;;;5008640;28;20026;-69
2022/11/27 10:29:46;;;;;;;9.48;4.30;;;;;;;;;;5002652;28;20022;-69
2022/11/27 10:32:11;;;;;;;31.20;5.30;;;;;;;;;;5007554;28;20112;-69
2022/11/27 10:34:48;;;;;;;10.50;4.00;;;;;;;;;;5003853;28;20625;-68
2022/11/27 10:37:26;;;;;;;7.85;2.47;;;;;;;;;;5002190;28;20277;-70
2022/11/27 10:39:53;;;;;;;9.98;4.68;;;;;;;;;;5008146;28;20048;-69
2022/11/27 10:42:24;;;;;;;11.63;2.45;;;;;;;;;;5007247;28;20367;-69
2022/11/27 10:44:51;;;;;;;15.23;3.42;;;;;;;;;;5006573;28;20014;-69
2022/11/27 10:47:19;;;;;;;6.35;2.70;;;;;;;;;;5008682;28;20033;-69
2022/11/27 10:49:45;;;;;;;15.98;5.95;;;;;;;;;;5001756;28;20026;-69
2022/11/27 10:52:12;;;;;;;13.00;5.45;;;;;;;;;;5004249;28;20024;-69
2022/11/27 10:54:38;;;;;;;8.65;3.22;;;;;;;;;;5003752;28;20056;-69
2022/11/27 10:57:12;;;;;;;15.05;4.72;;;;;;;;;;5005464;28;20022;-69
2022/11/27 10:59:42;;;;;;;7.43;2.60;;;;;;;;;;5007709;28;20026;-70
2022/11/27 11:02:24;;;;;;;10.52;4.05;;;;;;;;;;5004781;28;20033;-68
2022/11/27 11:04:49;;;;;;;8.63;2.85;;;;;;;;;;4999610;28;20557;-69
2022/11/27 11:07:22;;;;;;;9.45;3.65;;;;;;;;;;5009259;28;20034;-68
2022/11/27 11:09:48;;;;;;;10.15;2.63;;;;;;;;;;4998368;28;20025;-69
2022/11/27 11:12:13;;;;;;;8.53;3.87;;;;;;;;;;5008727;28;20355;-69
2022/11/27 11:14:38;;;;;;;8.40;3.17;;;;;;;;;;5001272;28;20273;-69
2022/11/27 11:17:13;;;;;;;9.13;3.55;;;;;;;;;;4998046;28;20018;-69
2022/11/27 11:19:39;;;;;;;11.13;3.50;;;;;;;;;;5001117;28;20487;-69
2022/11/27 11:22:11;;;;;;;11.75;4.15;;;;;;;;;;5001935;28;20032;-69
2022/11/27 11:24:38;;;;;;;8.65;3.85;;;;;;;;;;4998294;28;20093;-69
2022/11/27 11:27:09;;;;;;;11.23;3.28;;;;;;;;;;5001170;28;20010;-69
2022/11/27 11:29:34;;;;;;;;;;;;;;;;;;4998327;28;20105;-69
2022/11/27 11:32:23;;;;;;;10.47;3.43;;;;;;;;;;5001143;28;20018;-69
2022/11/27 11:34:51;;;;;;;14.15;4.13;;;;;;;;;;4994356;28;20753;-69
2022/11/27 11:37:19;;;;;;;7.22;3.53;;;;;;;;;;5001863;28;20072;-68
2022/11/27 11:39:46;;;;;;;21.02;3.05;;;;;;;;;;5004160;28;20097;-68
2022/11/27 11:42:19;;;;;;;8.50;1.92;;;;;;;;;;5001642;28;20125;-69
2022/11/27 11:44:49;;;;;;;5.78;2.63;;;;;;;;;;5005395;28;20018;-70
2022/11/27 11:47:18;;;;;;;7.28;3.42;;;;;;;;;;5000919;28;20014;-69
2022/11/27 11:49:44;;;;;;;7.63;3.47;;;;;;;;;;4997825;28;20025;-69
2022/11/27 11:52:20;;;;;;;10.35;3.80;;;;;;;;;;5004918;28;20084;-70
2022/11/27 11:55:04;;;;;;;11.57;3.95;;;;;;;;;;5002808;28;20072;-70
2022/11/27 11:57:55;;;;;;;7.85;3.70;;;;;;;;;;5001153;28;20034;-68
2022/11/27 12:00:22;;;;;;;6.28;3.45;;;;;;;;;;5005030;28;20117;-68
2022/11/27 12:03:12;;;;;;;10.40;3.67;;;;;;;;;;4999152;28;20419;-69
2022/11/27 12:05:56;;;;;;;7.75;1.73;;;;;;;;;;5001113;28;20467;-69
2022/11/27 12:08:41;;;;;;;8.90;3.53;;;;;;;;;;4998011;28;20057;-69
2022/11/27 12:11:12;;;;;;;8.95;3.83;;;;;;;;;;5001690;28;20057;-70
2022/11/27 12:13:48;;;;;;;6.88;3.63;;;;;;;;;;5001758;28;20517;-70
2022/11/27 12:16:14;;;;;;;5.45;2.95;;;;;;;;;;5019931;28;20025;-70
2022/11/27 12:18:45;;;;;;;4.50;2.03;;;;;;;;;;5008591;28;20036;-66
2022/11/27 12:21:21;;;;;;;3.58;1.65;;;;;;;;;;5007573;28;20269;-69
2022/11/27 12:24:05;;;;;;;5.55;3.38;;;;;;;;;;5006578;28;20017;-68
2022/11/27 12:26:35;;;;;;;8.48;2.03;;;;;;;;;;4999970;28;20029;-68
2022/11/27 12:29:19;;;;;;;19.50;3.05;;;;;;;;;;5001315;28;20029;-68
2022/11/27 12:31:51;;;;;;;6.88;3.28;;;;;;;;;;5000187;28;20022;-68
2022/11/27 12:34:28;;;;;;;4.10;1.73;;;;;;;;;;5006924;28;20032;-67
2022/11/27 12:37:12;;;;;;;13.32;2.25;;;;;;;;;;5007951;28;20026;-71
2022/11/27 12:39:56;;;;;;;4.55;2.45;;;;;;;;;;5000025;28;20077;-68
2022/11/27 12:42:21;;;;;;;6.00;2.22;;;;;;;;;;5004170;28;20026;-69
2022/11/27 12:44:46;;;;;;;7.53;2.77;;;;;;;;;;4998887;28;20018;-70
2022/11/27 12:47:23;;;;;;;11.23;2.50;;;;;;;;;;5007578;28;20363;-70
2022/11/27 12:49:57;;;;;;;5.50;1.92;;;;;;;;;;5001834;28;20273;-68
2022/11/27 12:52:24;;;;;;;4.68;2.22;;;;;;;;;;5004096;28;20513;-69
2022/11/27 12:54:49;;;;;;;5.38;2.35;;;;;;;;;;5002994;28;20030;-68
2022/11/27 12:57:17;;;;;;;3.08;1.50;;;;;;;;;;5003897;28;20434;-69
2022/11/27 12:59:46;;;;;;;5.25;2.13;;;;;;;;;;5001927;28;20304;-69
2022/11/27 13:02:23;;;;;;;8.48;2.28;;;;;;;;;;5002978;28;20057;-69
2022/11/27 13:04:48;;;;;;;7.75;2.28;;;;;;;;;;5001737;28;20030;-67
2022/11/27 13:07:28;;;;;;;2.55;1.70;;;;;;;;;;5001685;28;20018;-69
2022/11/27 13:10:04;;;;;;;4.50;2.50;;;;;;;;;;5001063;28;20172;-69
2022/11/27 13:12:31;;;;;;;8.65;2.15;;;;;;;;;;5001662;28;20042;-70
2022/11/27 13:15:01;;;;;;;7.45;2.28;;;;;;;;;;5004407;28;20160;-68
2022/11/27 13:17:35;;;;;;;4.15;1.90;;;;;;;;;;5003085;28;20105;-66
2022/11/27 13:20:01;;;;;;;2.05;1.15;;;;;;;;;;5000908;28;20104;-68
2022/11/27 13:22:33;;;;;;;5.18;1.88;;;;;;;;;;5003861;28;20144;-68
2022/11/27 13:25:01;;;;;;;7.13;2.03;;;;;;;;;;5003274;28;20498;-68
2022/11/27 13:27:28;;;;;;;5.30;2.25;;;;;;;;;;5007693;28;20413;-69
2022/11/27 13:29:58;;;;;;;3.03;1.83;;;;;;;;;;5004621;28;20557;-67
2022/11/27 13:32:23;;;;;;;;;;;;;;;;;;5009097;28;20145;-68
2022/11/27 13:34:49;;;;;;;5.50;2.38;;;;;;;;;;5005139;28;19945;-67
2022/11/27 13:37:33;;;;;;;9.35;2.63;;;;;;;;;;5008353;28;20033;-69
2022/11/27 13:40:03;;;;;;;2.55;1.60;;;;;;;;;;5005910;28;20018;-69
2022/11/27 13:42:29;;;;;;;4.75;1.63;;;;;;;;;;5009960;28;20094;-68
2022/11/27 13:44:58;;;;;;;4.68;1.73;;;;;;;;;;5005622;28;20172;-68
2022/11/27 13:47:25;;;;;;;5.43;2.47;;;;;;;;;;5009680;28;20545;-66
2022/11/27 13:50:01;;;;;;;9.95;2.60;;;;;;;;;;5004540;28;20021;-74
2022/11/27 13:52:28;;;;;;;3.45;2.05;;;;;;;;;;5007229;28;20029;-71
2022/11/27 13:54:58;;;;;;;4.85;1.70;;;;;;;;;;5008915;28;20033;-69
2022/11/27 13:57:24;;;;;;;5.65;2.63;;;;;;;;;;5006206;28;20372;-70
2022/11/27 13:59:58;;;;;;;3.30;1.58;;;;;;;;;;5004860;28;20507;-70
2022/11/27 14:02:24;;;;;;;5.22;1.65;;;;;;;;;;5006300;28;20033;-68
2022/11/27 14:04:50;;;;;;;6.85;2.25;;;;;;;;;;5008189;28;20019;-69
2022/11/27 14:07:15;;;;;;;2.65;1.48;;;;;;;;;;5005753;28;20104;-68
2022/11/27 14:09:45;;;;;;;5.95;2.83;;;;;;;;;;5003134;28;20232;-67
2022/11/27 14:12:14;;;;;;;3.90;2.22;;;;;;;;;;5005079;28;20021;-70
2022/11/27 14:14:40;;;;;;;1.75;1.27;;;;;;;;;;5003630;28;20190;-67
2022/11/27 14:17:21;;;;;;;8.60;1.88;;;;;;;;;;5002694;28;20201;-68
2022/11/27 14:19:57;;;;;;;12.00;2.78;;;;;;;;;;5005450;28;20030;-71
2022/11/27 14:22:33;;;;;;;5.13;2.30;;;;;;;;;;5008830;28;20022;-67
2022/11/27 14:24:58;;;;;;;4.72;2.00;;;;;;;;;;5008540;28;20022;-70
2022/11/27 14:27:24;;;;;;;4.07;2.10;;;;;;;;;;5006613;28;20453;-69
2022/11/27 14:29:50;;;;;;;4.40;1.10;;;;;;;;;;5005573;28;20299;-69
2022/11/27 14:32:16;;;;;;;5.90;2.58;;;;;;;;;;5004449;28;20030;-71
2022/11/27 14:34:41;;;;;;;3.53;2.05;;;;;;;;;;5005996;28;20038;-71
2022/11/27 14:37:18;;;;;;;6.80;2.65;;;;;;;;;;5002941;28;20033;-68
2022/11/27 14:39:43;;;;;;;6.32;1.77;;;;;;;;;;5002463;28;20056;-71
2022/11/27 14:42:18;;;;;;;5.13;2.10;;;;;;;;;;5003376;28;20566;-68